Souderton, PA (18964)

9:33 PM EDT on September 16, 2014 (GMT -0400)
Elroy | Change Station
CLOSE
Current Station
Personal Weather Station
Location: Souderton, PA
Elevation: 358 ft
Nearby Weather Stations

Elev 358 ft 40.28 °N, 75.33 °W | Updated 19 minutes ago

Mostly Cloudy
Mostly Cloudy
60.0 °F
Feels Like 60.0 °F
N
0.0
Wind Variable Wind from SW
Gusts 0.0 mph

Today
High -- | Low -- °F
--% Chance of Precip.
Yesterday
High -- | Low -- °F
Precip. -- in
6:43 AM 7:08 PM
Last Quarter, 40% visible
Pressure 30.04 in
Visibility 10.0 miles
Clouds Overcast 6000 ft
Dew Point 53 °F
Humidity 78%
Rainfall 0.20 in
Snow Depth Not available.
UV 0 out of 12
Pollen 3.80 out of 12
Air Quality Not available.
Flu Activity Not available.
METAR KUKT 170110Z AUTO 00000KT 10SM OVC060 16/11 A3004 RMK AO1

More Conditions Fewer Conditions

Pressure 30.04 in
Visibility 10.0 miles
Clouds Overcast 6000 ft
Dew Point 53 °F
Humidity 78%
Rainfall 0.20 in
Snow Depth Not available.
UV 0 out of 12
Pollen 3.80 out of 12
Air Quality Not available.
Flu Activity Not available.
METAR KUKT 170110Z AUTO 00000KT 10SM OVC060 16/11 A3004 RMK AO1

More Conditions Fewer Conditions

10-Day Weather Forecast

Almanac

Astronomy

Sep. 16, 2014 Rise Set
Actual Time 6:43 AM EDT 7:08 PM EDT
Civil Twilight 6:15 AM EDT 7:35 PM EDT
Nautical Twilight 5:43 AM EDT 8:07 PM EDT
Astronomical Twilight 5:10 AM EDT 8:40 PM EDT
Moon No Moon Rise 2:30 PM EDT (9/16)
Length of Visible Light 13h 19m
Length of Day
12h 25m
Tomorrow will be 2m 37s shorter.
Last Quarter, 40% of the Moon is Illuminated
Today
Last Quarter
Sep 24
New
Oct 1
First Quarter
Oct 8
Full
Oct 15
Last Quarter

Today's Extremes

State Highs State Lows

Community

WunderPhotos

Upload Photos

1,753,943 photos uploaded!

Nearby

Snow Depth

Station Depth Elevation
No new snow has been reported.

Earthquake Activity

City Distance Mag. Time & Date
No recent earthquake activity has been reported nearby.
Minimum magnitude displayed is 2.5.

Coastal Water Temperatures

Place Temperature
No Stations Reporting

Nearby Weather Stations